createdAt,value
2023-02-14T00:01:52.008Z,99102.20
2023-02-14T00:04:20.347Z,99099.48
2023-02-14T07:16:18.301Z,99087.72
2023-02-14T07:18:52.807Z,99088.95
2023-02-14T07:21:21.132Z,99093.66
2023-02-14T07:23:50.319Z,99090.42
2023-02-14T07:26:24.498Z,99090.42
2023-02-14T07:31:40.716Z,99091.30
2023-02-14T07:34:09.332Z,99090.74
2023-02-14T07:36:39.136Z,99089.84
2023-02-14T07:39:07.488Z,99090.71
2023-02-14T07:41:39.905Z,99095.38
2023-02-14T07:44:11.771Z,99093.98
2023-02-14T07:46:41.396Z,99095.63
2023-02-14T07:49:09.838Z,99092.02
2023-02-14T07:51:39.301Z,99089.11
2023-02-14T07:54:08.232Z,99089.98
2023-02-14T07:56:37.327Z,99088.52
2023-02-14T07:59:09.386Z,99086.98
2023-02-14T08:01:40.311Z,99081.95
2023-02-14T08:04:14.114Z,99082.52
2023-02-14T08:07:11.154Z,99087.40
2023-02-14T08:09:39.621Z,99091.59
2023-02-14T08:12:28.676Z,99088.58
2023-02-14T08:15:21.187Z,99101.64
2023-02-14T08:17:51.750Z,99103.36
2023-02-14T08:20:20.722Z,99100.48
2023-02-14T08:22:49.473Z,99098.30
2023-02-14T08:25:19.793Z,99098.40
2023-02-14T08:27:48.277Z,99101.14
2023-02-14T08:30:17.209Z,99099.48
2023-02-14T08:32:45.753Z,99099.91
2023-02-14T08:35:14.456Z,99103.40
2023-02-14T08:37:43.410Z,99107.89
2023-02-14T08:40:12.211Z,99110.24
2023-02-14T08:42:41.047Z,99108.96
2023-02-14T08:45:10.743Z,99110.38
2023-02-14T08:47:40.480Z,99114.98
2023-02-14T08:50:15.061Z,99117.67
2023-02-14T08:52:48.080Z,99117.65
2023-02-14T08:55:16.728Z,99121.27
2023-02-14T08:57:45.249Z,99125.88
2023-02-14T09:00:14.323Z,99128.04
2023-02-14T09:02:52.964Z,99123.60
2023-02-14T09:05:23.495Z,99125.09
2023-02-14T09:07:56.020Z,99127.91
2023-02-14T09:10:28.824Z,99125.53
2023-02-14T09:12:57.994Z,99125.35
2023-02-14T09:15:26.774Z,99123.73
2023-02-14T09:17:55.751Z,99124.65
2023-02-14T09:20:24.171Z,99120.45
2023-02-14T09:22:55.812Z,99119.55
2023-02-14T09:25:26.920Z,99128.95
2023-02-14T09:27:55.428Z,99131.42
2023-02-14T09:30:26.865Z,99131.70
2023-02-14T09:32:55.454Z,99141.13
2023-02-14T09:35:24.269Z,99141.23
2023-02-14T09:38:18.516Z,99144.89
2023-02-14T09:40:48.909Z,99138.48
2023-02-14T09:43:20.105Z,99129.39
2023-02-14T09:45:50.816Z,99125.05
2023-02-14T09:48:27.211Z,99118.32
2023-02-14T09:51:01.367Z,99118.63
2023-02-14T09:53:32.731Z,99115.26
2023-02-14T09:56:10.486Z,99109.27
2023-02-14T09:58:50.719Z,99108.20
2023-02-14T10:01:30.718Z,99105.75
2023-02-14T10:04:24.330Z,99108.73
2023-02-14T10:07:09.485Z,99107.30
2023-02-14T10:09:44.301Z,99115.11
2023-02-14T10:12:41.109Z,99103.89
2023-02-14T10:15:41.334Z,99096.45
2023-02-14T10:18:14.133Z,99089.68
2023-02-14T10:20:44.782Z,99088.82
2023-02-14T10:23:31.904Z,99085.27
2023-02-14T10:26:01.629Z,99082.74
2023-02-14T10:28:44.329Z,99079.16
2023-02-14T10:31:25.344Z,99070.25
2023-02-14T10:33:57.840Z,99063.15
2023-02-14T10:36:40.292Z,99063.04
2023-02-14T10:39:22.857Z,99063.82
2023-02-14T10:42:07.081Z,99054.48
2023-02-14T10:44:37.004Z,99059.92
2023-02-14T10:47:50.345Z,99055.10
2023-02-14T10:50:52.028Z,99063.13
2023-02-14T10:53:39.890Z,99064.25
2023-02-14T10:56:38.485Z,99057.25
2023-02-14T10:59:54.212Z,99060.50
2023-02-14T11:02:29.573Z,99060.34
2023-02-14T11:04:58.695Z,99053.14
2023-02-14T11:07:27.834Z,99054.14
2023-02-14T11:10:09.868Z,99046.48
2023-02-14T11:12:48.522Z,99054.41
2023-02-14T11:16:02.019Z,99055.41
2023-02-14T11:18:36.133Z,99062.14
2023-02-14T11:21:39.155Z,99060.77
2023-02-14T11:24:33.497Z,99055.36
2023-02-14T11:27:05.237Z,99054.41
2023-02-14T11:29:43.607Z,99052.04
2023-02-14T11:32:26.292Z,99055.47
2023-02-14T11:35:20.990Z,99058.11
2023-02-14T11:38:14.452Z,99060.23
2023-02-14T11:41:25.169Z,99061.25
2023-02-14T11:43:54.507Z,99051.05
2023-02-14T11:46:27.308Z,99043.27
2023-02-14T11:49:04.064Z,99045.16
2023-02-14T11:51:42.704Z,99044.53
2023-02-14T11:54:29.181Z,99041.02
2023-02-14T11:57:28.885Z,99042.23
2023-02-14T11:59:58.262Z,99030.27
2023-02-14T12:02:54.835Z,99028.69
2023-02-14T12:05:49.120Z,99019.75
2023-02-14T12:08:25.738Z,99014.73
2023-02-14T12:11:27.781Z,99009.52
2023-02-14T12:13:59.297Z,99013.55
2023-02-14T12:16:35.558Z,99016.50
2023-02-14T12:19:06.184Z,99018.25
2023-02-14T12:22:47.268Z,99013.63
2023-02-14T12:26:01.014Z,99014.77
2023-02-14T12:28:38.807Z,99015.73
2023-02-14T12:31:11.742Z,99018.00
2023-02-14T12:33:42.145Z,99022.92
2023-02-14T12:36:35.969Z,99022.48
2023-02-14T12:39:26.417Z,99019.94
2023-02-14T12:42:19.233Z,99019.48
2023-02-14T12:45:04.454Z,99022.06
2023-02-14T12:47:46.884Z,99021.05
2023-02-14T12:50:36.043Z,99017.45
2023-02-14T12:53:31.573Z,99017.48
2023-02-14T12:56:23.982Z,99011.55
2023-02-14T12:59:07.279Z,99025.05
2023-02-14T13:02:00.423Z,99027.36
2023-02-14T13:04:58.127Z,99029.40
2023-02-14T13:12:40.276Z,99017.52
2023-02-14T13:24:18.556Z,99017.57
2023-02-14T13:31:24.315Z,99014.52
2023-02-14T13:38:31.992Z,99014.98
2023-02-14T13:45:53.978Z,99009.77
2023-02-14T14:01:52.168Z,98994.75
2023-02-14T14:18:37.796Z,99015.11
2023-02-14T14:22:35.883Z,99015.41
2023-02-14T15:28:35.683Z,99072.92
2023-02-14T15:44:32.547Z,99097.02
2023-02-14T20:16:11.603Z,99377.48
2023-02-14T20:18:41.314Z,99379.14
2023-02-14T20:21:16.876Z,99381.41
2023-02-14T20:23:46.033Z,99382.73
2023-02-14T20:26:14.840Z,99382.89
2023-02-14T20:28:49.044Z,99382.16
2023-02-14T20:31:20.789Z,99386.86
2023-02-14T20:33:53.170Z,99389.20
2023-02-14T20:36:21.955Z,99392.35
2023-02-14T20:39:00.799Z,99390.19
2023-02-14T20:41:29.570Z,99394.15
2023-02-14T20:44:06.958Z,99392.50
2023-02-14T20:46:35.809Z,99394.33
2023-02-14T20:49:05.587Z,99397.30
2023-02-14T20:51:35.275Z,99401.28
2023-02-14T20:54:04.293Z,99401.20
2023-02-14T20:56:32.659Z,99403.58
2023-02-14T20:59:02.010Z,99402.44
2023-02-14T21:01:31.091Z,99402.48
2023-02-14T21:03:59.560Z,99401.77
2023-02-14T21:06:30.536Z,99404.41
2023-02-14T21:09:01.725Z,99413.58
2023-02-14T21:11:30.474Z,99411.70
2023-02-14T21:14:00.042Z,99415.13
2023-02-14T21:16:29.196Z,99420.14
2023-02-14T21:18:59.354Z,99416.06
2023-02-14T21:21:34.892Z,99418.83
2023-02-14T21:24:08.544Z,99414.98
2023-02-14T21:26:37.242Z,99415.90
2023-02-14T21:29:05.662Z,99417.13
2023-02-14T21:31:34.443Z,99417.96
2023-02-14T21:34:03.397Z,99416.08
2023-02-14T21:36:33.044Z,99414.42
2023-02-14T21:39:01.793Z,99413.92
2023-02-14T21:41:31.136Z,99418.52
2023-02-14T21:44:02.137Z,99421.46
2023-02-14T21:46:32.384Z,99424.41
2023-02-14T21:49:21.041Z,99423.44
2023-02-14T21:51:49.455Z,99428.97
2023-02-14T21:54:17.869Z,99428.70
2023-02-14T21:56:46.424Z,99430.23
2023-02-14T21:59:15.100Z,99433.34
2023-02-14T22:01:44.160Z,99434.50
2023-02-14T22:04:12.965Z,99438.08
2023-02-14T22:06:41.912Z,99442.33
2023-02-14T22:09:13.055Z,99443.42
2023-02-14T22:11:41.857Z,99441.34
2023-02-14T22:14:10.353Z,99442.00
2023-02-14T22:16:39.109Z,99441.92
2023-02-14T22:19:07.828Z,99448.46
2023-02-14T22:21:36.292Z,99445.70
2023-02-14T22:24:05.168Z,99449.91
2023-02-14T22:26:38.968Z,99452.92
2023-02-14T22:29:10.532Z,99457.84
2023-02-14T22:31:41.007Z,99457.84
2023-02-14T22:34:11.387Z,99455.82
2023-02-14T22:36:39.866Z,99458.40
2023-02-14T22:39:08.164Z,99457.95
2023-02-14T22:41:38.001Z,99456.38
2023-02-14T22:44:06.672Z,99453.74
2023-02-14T22:46:39.163Z,99453.78
2023-02-14T22:49:07.901Z,99451.15
2023-02-14T22:51:40.573Z,99458.36
2023-02-14T22:54:12.449Z,99459.04
2023-02-14T22:56:45.517Z,99465.17
2023-02-14T22:59:18.062Z,99462.48
2023-02-14T23:01:47.124Z,99463.89
2023-02-14T23:04:16.862Z,99463.27
2023-02-14T23:06:45.303Z,99464.53
2023-02-14T23:09:13.854Z,99465.69
2023-02-14T23:11:43.475Z,99470.86
2023-02-14T23:14:31.717Z,99473.02
2023-02-14T23:17:18.736Z,99470.73
2023-02-14T23:20:06.406Z,99472.36
2023-02-14T23:22:37.179Z,99472.58
2023-02-14T23:25:10.372Z,99475.39
2023-02-14T23:27:44.333Z,99473.65
2023-02-14T23:30:16.628Z,99470.98
2023-02-14T23:32:45.417Z,99472.89
2023-02-14T23:35:13.635Z,99471.39
2023-02-14T23:37:42.519Z,99475.64
2023-02-14T23:40:12.348Z,99470.70
2023-02-14T23:42:41.220Z,99473.19
2023-02-14T23:45:29.187Z,99474.58
2023-02-14T23:48:05.200Z,99477.70
2023-02-14T23:50:33.359Z,99479.64
2023-02-14T23:53:02.002Z,99471.83
2023-02-14T23:55:32.078Z,99473.54
2023-02-14T23:58:01.694Z,99472.90
